Time;durP1;ratioP1;P1;durP2;ratioP2;P2;SDS_P1;SDS_P2;PMS_P1;PMS_P2;Temp;Humidity;BMP_temperature;BMP_pressure;BME280_temperature;BME280_humidity;BME280_pressure;Samples;Min_cycle;Max_cycle;Signal;HPM_P1;HPM_P2
2024/01/06 00:02:27;;;;;;;17.42;8.35;;;;;;;6.48;100.00;99373.88;5245252;28;20027;-75
2024/01/06 00:04:57;;;;;;;16.23;7.95;;;;;;;6.40;100.00;99379.34;5244829;28;20016;-75
2024/01/06 00:07:27;;;;;;;13.15;7.32;;;;;;;6.40;100.00;99387.13;5245114;28;20032;-75
2024/01/06 00:09:58;;;;;;;15.00;8.10;;;;;;;6.44;100.00;99380.06;5248706;28;20021;-75
2024/01/06 00:12:28;;;;;;;15.00;8.50;;;;;;;6.28;100.00;99381.56;5247026;28;20036;-75
2024/01/06 00:14:58;;;;;;;16.23;8.25;;;;;;;6.46;100.00;99386.88;5247468;28;20017;-75
2024/01/06 00:17:29;;;;;;;15.55;8.13;;;;;;;6.42;100.00;99371.50;5246253;28;20501;-75
2024/01/06 00:20:00;;;;;;;15.70;7.85;;;;;;;6.47;100.00;99386.00;5247420;28;20385;-75
2024/01/06 00:22:30;;;;;;;15.77;7.38;;;;;;;6.42;100.00;99389.69;5247585;28;20256;-75
2024/01/06 00:25:00;;;;;;;13.77;7.72;;;;;;;6.44;100.00;99385.28;5246780;28;20489;-75
2024/01/06 00:27:31;;;;;;;16.45;8.38;;;;;;;6.29;100.00;99383.25;5251727;28;20031;-75
2024/01/06 00:30:01;;;;;;;13.63;8.15;;;;;;;6.32;100.00;99383.13;5247916;28;20016;-75
2024/01/06 00:32:31;;;;;;;17.08;8.23;;;;;;;6.24;100.00;99390.38;5246053;28;20016;-75
2024/01/06 00:35:02;;;;;;;16.55;8.88;;;;;;;6.08;100.00;99391.81;5246094;28;20027;-74
2024/01/06 00:37:32;;;;;;;15.95;8.68;;;;;;;6.26;100.00;99398.94;5248761;28;20024;-74
2024/01/06 00:40:03;;;;;;;15.90;8.55;;;;;;;6.20;100.00;99392.22;5249827;28;20047;-75
2024/01/06 00:42:34;;;;;;;15.95;8.60;;;;;;;6.29;100.00;99388.44;5247923;28;20488;-75
2024/01/06 00:45:05;;;;;;;16.65;9.38;;;;;;;6.27;100.00;99393.66;5244111;28;20035;-73
2024/01/06 00:47:35;;;;;;;14.82;8.98;;;;;;;6.15;100.00;99401.06;5245430;28;20089;-75
2024/01/06 00:50:06;;;;;;;14.48;8.57;;;;;;;6.20;100.00;99399.13;5248493;28;20476;-75
2024/01/06 00:52:36;;;;;;;15.60;9.00;;;;;;;6.27;100.00;99403.22;5247107;28;20163;-75
2024/01/06 00:55:07;;;;;;;18.83;9.38;;;;;;;6.17;100.00;99407.91;5248123;28;20104;-75
2024/01/06 00:57:38;;;;;;;15.52;8.93;;;;;;;6.09;100.00;99411.66;5247274;28;20044;-74
2024/01/06 01:00:08;;;;;;;17.58;9.70;;;;;;;5.80;100.00;99422.22;5246267;28;20481;-76
2024/01/06 01:02:38;;;;;;;18.42;9.30;;;;;;;5.87;100.00;99421.94;5250024;28;20024;-74
2024/01/06 01:05:09;;;;;;;17.33;9.85;;;;;;;5.93;100.00;99420.91;5249907;28;20477;-76
2024/01/06 01:07:39;;;;;;;17.73;9.32;;;;;;;5.83;100.00;99424.69;5241906;28;20016;-73
2024/01/06 01:10:10;;;;;;;15.40;8.85;;;;;;;5.90;100.00;99428.78;5247666;28;20062;-75
2024/01/06 01:12:40;;;;;;;19.30;9.45;;;;;;;5.87;100.00;99436.66;5249414;28;20107;-74
2024/01/06 01:15:10;;;;;;;19.00;9.52;;;;;;;5.91;100.00;99433.06;5244052;28;20500;-75
2024/01/06 01:17:41;;;;;;;20.15;9.65;;;;;;;5.76;100.00;99433.56;5245516;28;20059;-74
2024/01/06 01:20:11;;;;;;;17.83;9.40;;;;;;;5.75;100.00;99437.88;5247553;28;20024;-75
2024/01/06 01:22:41;;;;;;;18.50;9.65;;;;;;;5.94;100.00;99435.53;5249336;28;20028;-75
2024/01/06 01:25:12;;;;;;;18.85;9.57;;;;;;;5.77;100.00;99445.63;5249071;28;20044;-75
2024/01/06 01:27:43;;;;;;;17.92;10.02;;;;;;;5.64;100.00;99450.38;5249099;28;20020;-75
2024/01/06 01:30:14;;;;;;;17.27;9.48;;;;;;;5.50;100.00;99457.78;5248443;28;20029;-75
2024/01/06 01:32:44;;;;;;;19.05;10.02;;;;;;;5.42;100.00;99454.56;5237265;28;20029;-75
2024/01/06 01:35:14;;;;;;;19.02;10.65;;;;;;;5.54;100.00;99456.75;5240641;28;20044;-75
2024/01/06 01:37:45;;;;;;;20.90;10.43;;;;;;;5.40;100.00;99458.13;5245112;28;20062;-75
2024/01/06 01:40:15;;;;;;;19.17;9.73;;;;;;;5.35;100.00;99462.59;5248177;28;20035;-74
2024/01/06 01:42:45;;;;;;;19.35;10.13;;;;;;;5.19;100.00;99461.38;5246682;28;20023;-75
2024/01/06 01:45:16;;;;;;;21.85;10.75;;;;;;;5.25;100.00;99455.16;5247717;28;20041;-75
2024/01/06 01:47:46;;;;;;;20.17;10.27;;;;;;;5.35;100.00;99467.75;5249468;28;20089;-75
2024/01/06 01:50:16;;;;;;;19.77;10.20;;;;;;;5.45;100.00;99464.84;5250052;28;20028;-75
2024/01/06 01:52:47;;;;;;;19.05;10.52;;;;;;;5.15;100.00;99469.31;5247994;28;20020;-75
2024/01/06 01:55:17;;;;;;;19.08;10.35;;;;;;;5.42;100.00;99466.69;5249297;28;20477;-75
2024/01/06 01:57:48;;;;;;;22.92;11.02;;;;;;;5.34;100.00;99471.25;5250304;28;20040;-75
2024/01/06 02:00:19;;;;;;;18.75;9.95;;;;;;;5.17;100.00;99467.53;5248428;28;20466;-75
2024/01/06 02:02:49;;;;;;;20.85;10.98;;;;;;;5.26;100.00;99472.41;5240637;28;20274;-75
2024/01/06 02:05:19;;;;;;;20.10;10.82;;;;;;;5.36;100.00;99479.00;5245774;28;20147;-75
2024/01/06 02:07:51;;;;;;;19.13;10.60;;;;;;;5.43;100.00;99465.78;5252265;28;20111;-75
2024/01/06 02:10:21;;;;;;;18.63;10.15;;;;;;;5.57;100.00;99471.38;5247616;28;20028;-74
2024/01/06 02:12:51;;;;;;;18.63;10.55;;;;;;;5.47;100.00;99473.41;5250384;28;20524;-75
2024/01/06 02:15:22;;;;;;;21.13;10.90;;;;;;;5.29;100.00;99473.16;5252208;28;20274;-75
2024/01/06 02:17:52;;;;;;;20.42;10.32;;;;;;;5.28;100.00;99475.78;5248792;28;20033;-74
2024/01/06 02:20:24;;;;;;;18.20;10.05;;;;;;;5.33;100.00;99468.72;5247176;28;20527;-75
2024/01/06 02:22:56;;;;;;;20.00;10.63;;;;;;;5.36;100.00;99473.81;5250178;28;20707;-75
2024/01/06 02:25:27;;;;;;;21.02;10.45;;;;;;;5.27;100.00;99485.31;5250253;28;20123;-75
2024/01/06 02:27:57;;;;;;;20.98;11.05;;;;;;;5.20;100.00;99480.38;5253056;28;20572;-75
2024/01/06 02:30:27;;;;;;;17.90;10.52;;;;;;;5.11;100.00;99483.25;5254106;28;20028;-75
2024/01/06 02:32:57;;;;;;;20.92;10.88;;;;;;;4.86;100.00;99488.34;5248698;28;20035;-75
2024/01/06 02:35:28;;;;;;;22.65;10.27;;;;;;;4.87;100.00;99487.44;5244641;28;20505;-75
2024/01/06 02:37:58;;;;;;;22.00;10.68;;;;;;;5.07;100.00;99492.84;5249913;28;20454;-75
2024/01/06 02:40:28;;;;;;;19.27;10.13;;;;;;;5.01;100.00;99495.63;5254572;28;20026;-75
2024/01/06 02:42:59;;;;;;;19.52;10.05;;;;;;;4.87;100.00;99505.56;5248517;28;20032;-75
2024/01/06 02:45:29;;;;;;;20.90;10.52;;;;;;;5.06;100.00;99505.84;5250868;28;20043;-75
2024/01/06 02:47:59;;;;;;;20.88;10.02;;;;;;;5.07;100.00;99495.44;5253965;28;20108;-75
2024/01/06 02:50:30;;;;;;;20.38;11.00;;;;;;;4.85;100.00;99509.94;5252334;28;20461;-74
2024/01/06 02:53:00;;;;;;;19.23;10.15;;;;;;;4.78;100.00;99511.00;5255111;28;20026;-75
2024/01/06 02:55:30;;;;;;;21.25;11.23;;;;;;;4.77;100.00;99504.13;5251274;28;20073;-74
2024/01/06 02:58:00;;;;;;;23.90;11.85;;;;;;;4.79;100.00;99511.84;5248843;28;20040;-75
2024/01/06 03:00:31;;;;;;;22.90;11.15;;;;;;;4.83;100.00;99519.47;5251359;28;20120;-75
2024/01/06 03:03:01;;;;;;;23.85;11.55;;;;;;;4.55;100.00;99513.41;5245468;28;20032;-74
2024/01/06 03:05:31;;;;;;;23.98;12.00;;;;;;;4.77;100.00;99517.06;5251738;28;20020;-75
2024/01/06 03:08:02;;;;;;;24.83;12.07;;;;;;;4.72;100.00;99516.38;5249036;28;20040;-75
2024/01/06 03:10:33;;;;;;;26.85;12.43;;;;;;;4.82;100.00;99522.13;5251157;28;20028;-75
2024/01/06 03:13:03;;;;;;;24.02;11.27;;;;;;;4.86;100.00;99518.53;5246426;28;20266;-75
2024/01/06 03:15:34;;;;;;;22.83;10.88;;;;;;;4.93;100.00;99525.22;5250735;28;20051;-75
2024/01/06 03:18:04;;;;;;;27.67;11.98;;;;;;;5.00;100.00;99525.00;5250722;28;20031;-75
2024/01/06 03:20:35;;;;;;;23.52;11.63;;;;;;;4.84;100.00;99535.84;5256313;28;20313;-75
2024/01/06 03:23:05;;;;;;;24.10;10.90;;;;;;;4.76;100.00;99530.03;5250978;28;20028;-75
2024/01/06 03:25:35;;;;;;;26.35;11.93;;;;;;;4.88;100.00;99533.13;5255419;28;20480;-76
2024/01/06 03:28:06;;;;;;;23.15;11.40;;;;;;;4.83;100.00;99532.41;5250313;28;20112;-75
2024/01/06 03:30:36;;;;;;;22.63;11.30;;;;;;;4.90;100.00;99527.91;5252807;28;20027;-75
2024/01/06 03:33:06;;;;;;;22.00;11.40;;;;;;;4.84;100.00;99525.50;5248410;28;20295;-75
2024/01/06 03:35:36;;;;;;;23.20;11.57;;;;;;;4.82;100.00;99528.13;5245780;28;20063;-75
2024/01/06 03:38:07;;;;;;;24.38;11.65;;;;;;;4.90;100.00;99535.66;5252597;28;20050;-75
2024/01/06 03:40:37;;;;;;;22.05;11.10;;;;;;;4.90;100.00;99533.94;5252593;28;20055;-75
2024/01/06 03:43:07;;;;;;;21.80;10.18;;;;;;;4.97;100.00;99532.84;5252204;28;20405;-75
2024/01/06 03:45:38;;;;;;;22.73;11.13;;;;;;;5.01;100.00;99539.63;5242426;28;20051;-75
2024/01/06 03:48:08;;;;;;;24.08;11.20;;;;;;;4.81;100.00;99536.78;5247485;28;20028;-75
2024/01/06 03:50:38;;;;;;;21.35;10.70;;;;;;;4.77;100.00;99539.53;5255103;28;20333;-75
2024/01/06 03:53:08;;;;;;;21.65;10.77;;;;;;;4.93;100.00;99541.59;5247693;28;20027;-75
2024/01/06 03:55:39;;;;;;;21.30;10.68;;;;;;;5.04;100.00;99544.75;5251381;28;20107;-75
2024/01/06 03:58:10;;;;;;;22.45;10.30;;;;;;;5.14;100.00;99548.72;5251919;28;20025;-75
2024/01/06 04:00:40;;;;;;;23.33;10.88;;;;;;;5.03;100.00;99543.03;5247631;28;20111;-75
2024/01/06 04:03:10;;;;;;;21.58;10.25;;;;;;;4.99;100.00;99549.19;5252113;28;20366;-75
2024/01/06 04:05:40;;;;;;;22.98;10.80;;;;;;;5.04;100.00;99555.09;5251777;28;20032;-75
2024/01/06 04:08:11;;;;;;;21.60;10.40;;;;;;;5.09;100.00;99554.94;5249698;28;20488;-75
2024/01/06 04:10:41;;;;;;;20.15;9.85;;;;;;;5.14;100.00;99551.31;5254069;28;20024;-75
2024/01/06 04:13:11;;;;;;;21.70;10.48;;;;;;;4.87;100.00;99561.63;5251931;28;20024;-75
2024/01/06 04:15:42;;;;;;;20.30;10.45;;;;;;;4.85;100.00;99553.06;5249488;28;20024;-75
2024/01/06 04:18:12;;;;;;;19.77;10.70;;;;;;;4.77;100.00;99558.47;5250951;28;20157;-75
2024/01/06 04:20:42;;;;;;;21.00;10.70;;;;;;;4.91;100.00;99560.66;5244850;28;20028;-75
2024/01/06 04:23:12;;;;;;;23.13;10.10;;;;;;;4.83;100.00;99563.47;5247609;28;20028;-75
2024/01/06 04:25:43;;;;;;;20.70;10.30;;;;;;;4.85;100.00;99569.47;5251289;28;20020;-75
2024/01/06 04:28:13;;;;;;;20.60;9.73;;;;;;;4.93;100.00;99571.81;5245963;28;20032;-75
2024/01/06 04:30:43;;;;;;;21.23;9.65;;;;;;;4.91;100.00;99569.28;5247178;28;20111;-75
2024/01/06 04:33:14;;;;;;;18.83;9.98;;;;;;;4.98;100.00;99575.97;5253499;28;20032;-75
2024/01/06 04:35:44;;;;;;;22.35;10.52;;;;;;;4.90;100.00;99577.06;5249549;28;20055;-74
2024/01/06 04:38:14;;;;;;;21.17;9.90;;;;;;;4.87;100.00;99580.63;5250797;28;20025;-75
2024/01/06 04:40:44;;;;;;;22.45;10.73;;;;;;;4.94;100.00;99582.13;5248016;28;20085;-75
2024/01/06 04:43:15;;;;;;;21.08;9.80;;;;;;;5.04;100.00;99586.16;5246711;28;20504;-75
2024/01/06 04:45:45;;;;;;;20.80;10.65;;;;;;;5.08;100.00;99589.47;5252228;28;20036;-75
2024/01/06 04:48:16;;;;;;;20.42;10.25;;;;;;;5.08;100.00;99592.94;5251242;28;20032;-75
2024/01/06 04:50:46;;;;;;;23.10;10.73;;;;;;;4.99;100.00;99597.53;5250266;28;20108;-74
2024/01/06 04:53:16;;;;;;;23.85;10.73;;;;;;;4.98;100.00;99601.00;5249918;28;20354;-74
2024/01/06 04:55:47;;;;;;;20.45;10.35;;;;;;;4.96;100.00;99602.81;5249628;28;20012;-75
2024/01/06 04:58:17;;;;;;;24.85;10.15;;;;;;;4.99;100.00;99607.88;5252374;28;20063;-76
2024/01/06 05:00:47;;;;;;;18.80;9.52;;;;;;;5.05;100.00;99608.56;5249543;28;20108;-76
2024/01/06 05:03:18;;;;;;;20.13;9.45;;;;;;;4.81;100.00;99611.81;5250989;28;20449;-75
2024/01/06 05:05:48;;;;;;;20.15;9.57;;;;;;;4.87;100.00;99609.09;5247466;28;20024;-76
2024/01/06 05:08:18;;;;;;;21.70;10.65;;;;;;;4.84;100.00;99603.16;5251345;28;20028;-74
2024/01/06 05:10:49;;;;;;;22.23;9.88;;;;;;;4.91;100.00;99610.69;5249250;28;20047;-75
2024/01/06 05:13:19;;;;;;;22.15;9.80;;;;;;;4.95;100.00;99611.47;5246699;28;20036;-75
2024/01/06 05:15:49;;;;;;;18.25;9.30;;;;;;;5.19;100.00;99614.16;5248163;28;20028;-75
2024/01/06 05:18:20;;;;;;;17.90;9.18;;;;;;;5.26;100.00;99623.47;5248253;28;20024;-75
2024/01/06 05:20:50;;;;;;;19.17;9.07;;;;;;;5.25;100.00;99615.72;5247514;28;20028;-76
2024/01/06 05:23:20;;;;;;;19.75;10.27;;;;;;;5.26;100.00;99618.28;5243954;28;20667;-75
2024/01/06 05:25:51;;;;;;;19.13;8.93;;;;;;;5.18;100.00;99622.81;5243460;28;20082;-75
2024/01/06 05:28:21;;;;;;;21.10;9.65;;;;;;;5.40;100.00;99626.50;5249490;28;20415;-75
2024/01/06 05:30:51;;;;;;;18.27;8.52;;;;;;;5.31;100.00;99628.53;5248808;28;20044;-75
2024/01/06 05:33:22;;;;;;;17.33;8.65;;;;;;;5.36;100.00;99630.06;5250148;28;20028;-75
2024/01/06 05:35:52;;;;;;;18.17;9.30;;;;;;;5.32;100.00;99630.22;5244992;28;20059;-75
2024/01/06 05:38:22;;;;;;;17.83;9.63;;;;;;;5.39;100.00;99637.75;5251278;28;20109;-75
2024/01/06 05:40:52;;;;;;;18.02;8.93;;;;;;;5.30;100.00;99640.59;5248817;28;20035;-75
2024/01/06 05:43:23;;;;;;;17.23;8.88;;;;;;;5.22;100.00;99642.59;5247470;28;20106;-75
2024/01/06 05:45:53;;;;;;;18.45;9.25;;;;;;;5.19;100.00;99649.59;5246733;28;20115;-75
2024/01/06 05:48:23;;;;;;;18.83;8.95;;;;;;;5.20;100.00;99649.56;5243962;28;20039;-75
2024/01/06 05:50:54;;;;;;;20.27;9.13;;;;;;;5.29;100.00;99662.22;5251189;28;20031;-75
2024/01/06 05:53:24;;;;;;;19.20;9.27;;;;;;;5.26;100.00;99670.09;5254716;28;20032;-75
2024/01/06 05:55:54;;;;;;;20.23;10.48;;;;;;;5.27;100.00;99670.91;5252228;28;20139;-75
2024/01/06 05:58:24;;;;;;;21.58;10.27;;;;;;;5.15;100.00;99672.13;5250532;28;20028;-75
2024/01/06 06:00:55;;;;;;;18.92;9.73;;;;;;;5.09;100.00;99668.84;5252265;28;20028;-75
2024/01/06 06:03:25;;;;;;;21.27;9.95;;;;;;;5.24;100.00;99666.69;5253255;28;20385;-75
2024/01/06 06:05:55;;;;;;;19.67;9.52;;;;;;;5.35;100.00;99671.56;5251581;28;20036;-74
2024/01/06 06:08:25;;;;;;;20.45;9.60;;;;;;;5.28;100.00;99676.06;5255528;28;20023;-75
2024/01/06 06:11:04;;;;;;;18.10;9.25;;;;;;;5.23;100.00;99674.50;5250985;28;20065;-74
2024/01/06 06:13:35;;;;;;;22.92;10.27;;;;;;;5.20;100.00;99691.00;5244526;28;20055;-73
2024/01/06 06:16:05;;;;;;;22.90;10.43;;;;;;;4.98;100.00;99696.81;5251446;28;20603;-75
2024/01/06 06:18:35;;;;;;;21.80;9.98;;;;;;;5.10;100.00;99696.44;5253374;28;20027;-75
2024/01/06 06:21:08;;;;;;;24.90;10.45;;;;;;;5.05;100.00;99706.94;5246435;28;20035;-74
2024/01/06 06:23:39;;;;;;;23.23;10.43;;;;;;;4.90;100.00;99707.34;5253321;28;20123;-73
2024/01/06 06:26:09;;;;;;;23.77;11.02;;;;;;;5.01;100.00;99705.31;5251981;28;20169;-75
2024/01/06 06:28:39;;;;;;;25.73;11.65;;;;;;;4.99;100.00;99714.84;5252460;28;20020;-75
2024/01/06 06:31:10;;;;;;;26.58;11.73;;;;;;;4.93;100.00;99709.84;5254406;28;20039;-74
2024/01/06 06:33:40;;;;;;;20.90;9.95;;;;;;;5.05;100.00;99721.63;5254427;28;20335;-74
2024/01/06 06:36:10;;;;;;;22.80;10.60;;;;;;;5.06;100.00;99721.59;5249509;28;20028;-75
2024/01/06 06:38:41;;;;;;;24.27;10.90;;;;;;;5.02;100.00;99722.56;5253220;28;20299;-75
2024/01/06 06:41:11;;;;;;;25.48;11.43;;;;;;;5.01;100.00;99725.19;5253705;28;20508;-75
2024/01/06 06:43:41;;;;;;;27.13;11.35;;;;;;;4.88;100.00;99735.03;5250749;28;20131;-75
2024/01/06 06:46:12;;;;;;;26.98;11.38;;;;;;;4.99;100.00;99735.56;5249167;28;20035;-75
2024/01/06 06:48:42;;;;;;;27.88;11.68;;;;;;;5.02;100.00;99738.09;5246712;28;20564;-75
2024/01/06 06:51:12;;;;;;;27.77;12.18;;;;;;;4.95;100.00;99752.06;5244191;28;20067;-75
2024/01/06 06:53:43;;;;;;;29.15;12.05;;;;;;;5.00;100.00;99750.22;5275888;27;20398;-75
2024/01/06 06:56:17;;;;;;;29.15;11.88;;;;;;;4.92;100.00;99757.34;5251522;28;20032;-75
2024/01/06 06:58:47;;;;;;;26.70;11.52;;;;;;;4.98;100.00;99744.22;5252368;28;20106;-75
2024/01/06 07:01:17;;;;;;;29.75;12.05;;;;;;;4.96;100.00;99752.94;5251235;28;20127;-75
2024/01/06 07:03:47;;;;;;;29.65;12.00;;;;;;;4.92;100.00;99767.69;5248812;28;20389;-74
2024/01/06 07:06:18;;;;;;;30.90;12.65;;;;;;;4.91;100.00;99771.19;5249307;28;20071;-75
2024/01/06 07:08:48;;;;;;;35.88;13.70;;;;;;;4.79;100.00;99768.88;5245665;28;20032;-75
2024/01/06 07:11:19;;;;;;;39.13;14.25;;;;;;;4.70;100.00;99776.03;5246686;28;20032;-75
2024/01/06 07:13:50;;;;;;;35.33;13.82;;;;;;;4.65;100.00;99767.53;5244977;28;20056;-75
2024/01/06 07:16:20;;;;;;;35.83;13.95;;;;;;;4.90;100.00;99772.06;5242411;28;20035;-75
2024/01/06 07:18:50;;;;;;;41.78;15.45;;;;;;;4.76;100.00;99783.63;5244340;28;20032;-75
2024/01/06 07:21:21;;;;;;;45.90;15.00;;;;;;;4.64;100.00;99791.72;5247816;28;20484;-75
2024/01/06 07:23:51;;;;;;;41.30;15.82;;;;;;;4.62;100.00;99793.50;5248038;28;20024;-74
2024/01/06 07:26:21;;;;;;;42.85;14.52;;;;;;;4.54;100.00;99796.28;5247127;28;20489;-74
2024/01/06 07:28:51;;;;;;;41.33;16.30;;;;;;;4.68;100.00;99799.38;5244031;28;20036;-75
2024/01/06 07:31:22;;;;;;;40.47;15.10;;;;;;;4.58;100.00;99808.25;5243754;28;20032;-75
2024/01/06 07:33:52;;;;;;;42.55;15.80;;;;;;;4.59;100.00;99798.72;5246506;28;20076;-75
2024/01/06 07:36:22;;;;;;;43.17;15.25;;;;;;;4.62;100.00;99806.44;5248779;28;20024;-75
2024/01/06 07:38:53;;;;;;;37.72;14.30;;;;;;;4.49;100.00;99807.59;5244604;28;20028;-75
2024/01/06 07:41:23;;;;;;;40.10;14.88;;;;;;;4.51;100.00;99822.22;5253408;28;20541;-75
2024/01/06 07:43:54;;;;;;;41.03;15.05;;;;;;;4.53;100.00;99815.28;5244707;28;20032;-75
2024/01/06 07:46:24;;;;;;;43.05;14.95;;;;;;;4.59;100.00;99828.03;5246614;28;20035;-75
2024/01/06 07:48:55;;;;;;;34.88;15.15;;;;;;;4.44;100.00;99825.81;5247167;28;20025;-75
2024/01/06 07:51:25;;;;;;;37.28;14.45;;;;;;;4.36;100.00;99832.91;5249490;28;20027;-75
2024/01/06 07:53:55;;;;;;;40.65;14.75;;;;;;;4.44;100.00;99841.34;5243482;28;20036;-75
2024/01/06 07:56:26;;;;;;;38.90;14.15;;;;;;;4.38;100.00;99843.19;5247089;28;20024;-75
2024/01/06 07:58:56;;;;;;;39.53;14.02;;;;;;;4.37;100.00;99844.97;5248551;28;20332;-75
2024/01/06 08:01:27;;;;;;;41.60;14.88;;;;;;;4.62;100.00;99842.66;5248594;28;20035;-75
2024/01/06 08:03:58;;;;;;;45.70;14.23;;;;;;;4.49;100.00;99844.66;5245747;28;20546;-75
2024/01/06 08:06:28;;;;;;;41.70;14.75;;;;;;;4.47;100.00;99848.19;5241143;28;20020;-75
2024/01/06 08:08:58;;;;;;;41.33;14.35;;;;;;;4.49;100.00;99849.81;5247378;28;20477;-75
2024/01/06 08:11:29;;;;;;;37.70;13.98;;;;;;;4.45;100.00;99858.56;5246939;28;20047;-75
2024/01/06 08:13:59;;;;;;;33.95;13.65;;;;;;;4.47;100.00;99868.88;5244091;28;20036;-75
2024/01/06 08:16:29;;;;;;;44.05;15.25;;;;;;;4.47;100.00;99874.06;5242352;28;20028;-75
2024/01/06 08:18:59;;;;;;;39.10;14.60;;;;;;;4.40;100.00;99875.91;5242117;28;20473;-74
2024/01/06 08:21:30;;;;;;;41.55;14.85;;;;;;;4.33;100.00;99889.84;5244723;28;20043;-76
2024/01/06 08:24:00;;;;;;;39.30;13.95;;;;;;;4.29;100.00;99889.97;5243291;28;20067;-75
2024/01/06 08:26:31;;;;;;;38.38;13.45;;;;;;;4.39;100.00;99889.75;5241208;28;20029;-74
2024/01/06 08:29:01;;;;;;;34.28;13.07;;;;;;;4.46;100.00;99893.88;5247794;28;20020;-75
2024/01/06 08:31:31;;;;;;;35.55;13.50;;;;;;;4.40;100.00;99901.78;5251386;28;20477;-74
2024/01/06 08:34:05;;;;;;;41.35;14.30;;;;;;;4.29;100.00;99911.50;5242541;28;20024;-74
2024/01/06 08:36:36;;;;;;;36.03;13.68;;;;;;;4.28;100.00;99912.38;5249036;28;20059;-74
2024/01/06 08:39:08;;;;;;;44.03;15.07;;;;;;;4.46;100.00;99922.34;5247750;28;20024;-74
2024/01/06 08:41:38;;;;;;;39.67;13.25;;;;;;;4.55;100.00;99919.56;5244474;28;20417;-74
2024/01/06 08:44:09;;;;;;;39.42;14.38;;;;;;;4.45;100.00;99925.81;5242848;28;20028;-74
2024/01/06 08:46:39;;;;;;;41.70;14.40;;;;;;;4.44;100.00;99929.28;5246148;28;20532;-74
2024/01/06 08:49:09;;;;;;;38.90;13.80;;;;;;;4.58;100.00;99932.41;5241894;28;20021;-76
2024/01/06 08:51:40;;;;;;;36.95;12.80;;;;;;;4.45;100.00;99928.38;5251836;28;20035;-74
2024/01/06 08:54:10;;;;;;;39.05;13.30;;;;;;;4.46;100.00;99929.25;5252857;28;20098;-74
2024/01/06 08:56:40;;;;;;;34.22;13.00;;;;;;;4.32;100.00;99934.69;5245739;28;20023;-74
2024/01/06 08:59:10;;;;;;;40.15;14.07;;;;;;;4.26;100.00;99940.00;5247032;28;20094;-74
2024/01/06 09:01:42;;;;;;;39.33;14.18;;;;;;;4.44;100.00;99936.19;5254615;28;20028;-74
2024/01/06 09:04:12;;;;;;;37.47;14.35;;;;;;;4.48;100.00;99941.25;5228700;28;20028;-73
2024/01/06 09:06:43;;;;;;;39.53;14.23;;;;;;;4.44;100.00;99941.38;5241044;28;20097;-74
2024/01/06 09:09:13;;;;;;;40.85;14.07;;;;;;;4.47;100.00;99952.50;5251380;28;20028;-74
2024/01/06 09:11:44;;;;;;;38.00;14.77;;;;;;;4.47;100.00;99955.06;5247990;28;20551;-74
2024/01/06 09:14:15;;;;;;;37.05;13.95;;;;;;;4.49;100.00;99963.66;5247318;28;20070;-74
2024/01/06 09:16:46;;;;;;;40.72;14.88;;;;;;;4.32;100.00;99960.56;5249600;28;20104;-74
2024/01/06 09:19:16;;;;;;;40.10;14.48;;;;;;;4.41;100.00;99970.72;5247079;28;20524;-74
2024/01/06 09:21:46;;;;;;;39.40;14.32;;;;;;;4.28;100.00;99978.78;5240198;28;20813;-74
2024/01/06 09:24:17;;;;;;;38.22;13.18;;;;;;;4.49;100.00;99974.00;5243697;28;20032;-74
2024/01/06 09:26:50;;;;;;;40.38;14.10;;;;;;;4.53;100.00;99979.97;5245021;28;20573;-74
2024/01/06 09:29:21;;;;;;;38.70;14.18;;;;;;;4.40;100.00;99989.72;5245186;28;20107;-74
2024/01/06 09:31:52;;;;;;;42.95;14.65;;;;;;;4.56;100.00;99988.53;5248902;28;20043;-74
2024/01/06 09:34:22;;;;;;;40.55;14.07;;;;;;;4.46;100.00;99999.94;5248978;28;20476;-73
2024/01/06 09:36:52;;;;;;;43.63;14.73;;;;;;;4.41;100.00;100000.91;5241167;28;20291;-74
2024/01/06 09:39:22;;;;;;;40.83;14.18;;;;;;;4.35;100.00;100011.38;5241614;28;20669;-74
2024/01/06 09:41:53;;;;;;;36.85;14.05;;;;;;;4.46;100.00;100010.28;5246930;28;20028;-74
2024/01/06 09:44:24;;;;;;;36.92;14.00;;;;;;;4.38;100.00;100017.34;5240944;28;20032;-74
2024/01/06 09:46:57;;;;;;;42.17;14.48;;;;;;;4.46;100.00;100017.22;5247939;28;20553;-74
2024/01/06 09:49:28;;;;;;;38.65;13.48;;;;;;;4.42;100.00;100023.31;5245814;28;20066;-74
2024/01/06 09:52:00;;;;;;;41.70;14.93;;;;;;;4.28;100.00;100013.22;5245291;28;20024;-74
2024/01/06 09:54:34;;;;;;;43.38;15.00;;;;;;;4.32;100.00;100021.78;5244331;28;20067;-74
2024/01/06 09:57:06;;;;;;;37.03;13.32;;;;;;;4.22;100.00;100008.19;5242743;28;20020;-74
2024/01/06 09:59:36;;;;;;;41.55;14.32;;;;;;;4.35;100.00;100012.25;5239966;28;20040;-74
2024/01/06 10:02:07;;;;;;;39.45;13.82;;;;;;;4.37;100.00;100019.97;5238246;28;21151;-74
2024/01/06 10:04:38;;;;;;;44.88;14.85;;;;;;;4.24;100.00;100028.81;5241440;28;20127;-74
2024/01/06 10:07:08;;;;;;;38.55;14.07;;;;;;;4.38;100.00;100030.28;5263444;28;20032;-74
2024/01/06 10:09:38;;;;;;;40.65;14.88;;;;;;;4.43;100.00;100036.22;5240525;28;20392;-74
2024/01/06 10:12:09;;;;;;;41.38;15.30;;;;;;;4.46;100.00;100030.97;5242217;28;20336;-74
2024/01/06 10:14:39;;;;;;;42.83;15.32;;;;;;;4.38;100.00;100027.69;5241849;28;20055;-74
2024/01/06 10:17:10;;;;;;;41.03;15.85;;;;;;;4.39;100.00;100024.22;5238196;28;20466;-74
2024/01/06 10:19:40;;;;;;;41.17;13.90;;;;;;;4.54;100.00;100025.66;5241174;28;20528;-74
2024/01/06 10:22:10;;;;;;;42.53;14.23;;;;;;;4.35;100.00;100030.34;5241737;28;20481;-72
2024/01/06 10:24:41;;;;;;;43.08;14.57;;;;;;;4.25;100.00;100031.41;5240578;28;20036;-73
2024/01/06 10:27:11;;;;;;;41.97;15.30;;;;;;;4.18;100.00;100034.13;5237780;28;20021;-74
2024/01/06 10:29:42;;;;;;;43.70;14.77;;;;;;;4.40;100.00;100044.03;5244612;28;20040;-75
2024/01/06 10:32:12;;;;;;;46.15;15.65;;;;;;;4.27;100.00;100045.16;5271595;27;20187;-74
2024/01/06 10:34:43;;;;;;;41.55;15.05;;;;;;;4.34;100.00;100044.16;5242558;28;20051;-74
2024/01/06 10:37:13;;;;;;;44.28;15.15;;;;;;;4.27;100.00;100045.16;5246964;28;20381;-74
2024/01/06 10:39:44;;;;;;;42.08;14.70;;;;;;;4.19;100.00;100057.38;5250769;28;20039;-74
2024/01/06 10:42:15;;;;;;;41.40;14.57;;;;;;;4.23;100.00;100059.03;5248127;28;20108;-74
2024/01/06 10:44:47;;;;;;;39.30;13.75;;;;;;;4.14;100.00;100069.50;5247964;28;20182;-74
2024/01/06 10:47:18;;;;;;;38.85;13.75;;;;;;;4.18;100.00;100054.81;5248165;28;20244;-75
2024/01/06 10:49:50;;;;;;;38.80;14.73;;;;;;;4.28;100.00;100052.03;5247359;28;20035;-74
2024/01/06 10:52:23;;;;;;;44.10;15.57;;;;;;;4.43;100.00;100053.50;5241604;28;20020;-74
2024/01/06 10:54:55;;;;;;;41.33;14.25;;;;;;;4.29;100.00;100061.47;5242231;28;20045;-74
2024/01/06 10:57:27;;;;;;;46.15;15.25;;;;;;;4.15;100.00;100065.22;5244945;28;20124;-74
2024/01/06 10:59:59;;;;;;;42.13;14.05;;;;;;;4.06;100.00;100071.41;5245299;28;20078;-75
2024/01/06 11:02:31;;;;;;;46.67;14.57;;;;;;;4.13;100.00;100067.81;5248116;28;20401;-74
2024/01/06 11:05:02;;;;;;;49.95;15.80;;;;;;;4.01;100.00;100065.47;5244466;28;20107;-75
2024/01/06 11:07:33;;;;;;;45.90;15.35;;;;;;;3.96;100.00;100069.84;5243611;28;20127;-74
2024/01/06 11:10:10;;;;;;;41.88;14.85;;;;;;;4.02;100.00;100071.47;5246541;28;20597;-75
2024/01/06 11:12:42;;;;;;;37.63;13.45;;;;;;;3.93;100.00;100069.91;5243967;28;20123;-74
2024/01/06 11:15:39;;;;;;;39.65;13.77;;;;;;;3.94;100.00;100068.19;5246790;28;20013;-75
2024/01/06 11:18:09;;;;;;;44.40;14.05;;;;;;;4.01;100.00;100072.34;5243810;28;20278;-74
2024/01/06 11:21:17;;;;;;;38.47;13.20;;;;;;;3.92;100.00;100072.53;5243933;28;20507;-74
2024/01/06 11:24:06;;;;;;;37.38;13.95;;;;;;;3.80;100.00;100060.66;5244414;28;20265;-75
2024/01/06 11:26:42;;;;;;;33.33;12.63;;;;;;;3.84;100.00;100059.72;5239385;28;20028;-75
2024/01/06 11:29:12;;;;;;;42.97;14.30;;;;;;;3.71;100.00;100063.41;5243161;28;20047;-74
2024/01/06 11:31:43;;;;;;;44.97;15.55;;;;;;;3.76;100.00;100061.56;5242051;28;20120;-74
2024/01/06 11:34:18;;;;;;;41.85;14.30;;;;;;;3.68;100.00;100065.16;5246371;28;20028;-75